sensor_id;sensor_type;location;lat;lon;timestamp;P1;durP1;ratioP1;P2;durP2;ratioP2
32082;SDS011;18597;48.328;7.932;2023-02-15T00:01:55;34.57;;;20.60;;
32082;SDS011;18597;48.328;7.932;2023-02-15T00:04:22;50.83;;;22.40;;
32082;SDS011;18597;48.328;7.932;2023-02-15T00:07:09;60.90;;;22.60;;
32082;SDS011;18597;48.328;7.932;2023-02-15T00:09:35;48.20;;;21.13;;
32082;SDS011;18597;48.328;7.932;2023-02-15T00:12:01;78.97;;;22.70;;
32082;SDS011;18597;48.328;7.932;2023-02-15T00:14:27;90.70;;;23.47;;
32082;SDS011;18597;48.328;7.932;2023-02-15T00:16:53;126.63;;;23.37;;
32082;SDS011;18597;48.328;7.932;2023-02-15T00:19:20;85.87;;;21.40;;
32082;SDS011;18597;48.328;7.932;2023-02-15T00:21:46;60.37;;;21.70;;
32082;SDS011;18597;48.328;7.932;2023-02-15T00:24:14;109.23;;;22.60;;
32082;SDS011;18597;48.328;7.932;2023-02-15T00:26:42;126.27;;;23.27;;
32082;SDS011;18597;48.328;7.932;2023-02-15T00:29:09;69.80;;;21.00;;
32082;SDS011;18597;48.328;7.932;2023-02-15T00:31:36;123.83;;;24.37;;
32082;SDS011;18597;48.328;7.932;2023-02-15T00:34:05;142.23;;;26.20;;
32082;SDS011;18597;48.328;7.932;2023-02-15T00:36:37;39.53;;;20.87;;
32082;SDS011;18597;48.328;7.932;2023-02-15T00:39:04;55.80;;;22.60;;
32082;SDS011;18597;48.328;7.932;2023-02-15T00:41:31;49.80;;;21.83;;
32082;SDS011;18597;48.328;7.932;2023-02-15T00:43:59;36.60;;;20.70;;
32082;SDS011;18597;48.328;7.932;2023-02-15T00:46:25;33.60;;;19.60;;
32082;SDS011;18597;48.328;7.932;2023-02-15T00:48:51;39.10;;;21.97;;
32082;SDS011;18597;48.328;7.932;2023-02-15T00:51:17;33.67;;;20.03;;
32082;SDS011;18597;48.328;7.932;2023-02-15T00:53:43;53.07;;;23.03;;
32082;SDS011;18597;48.328;7.932;2023-02-15T00:56:10;37.40;;;22.20;;
32082;SDS011;18597;48.328;7.932;2023-02-15T00:58:36;33.73;;;18.27;;
32082;SDS011;18597;48.328;7.932;2023-02-15T01:01:04;32.30;;;19.73;;
32082;SDS011;18597;48.328;7.932;2023-02-15T01:03:35;33.30;;;18.23;;
32082;SDS011;18597;48.328;7.932;2023-02-15T01:06:02;28.30;;;19.20;;
32082;SDS011;18597;48.328;7.932;2023-02-15T01:08:29;28.40;;;18.40;;
32082;SDS011;18597;48.328;7.932;2023-02-15T01:10:55;28.03;;;18.07;;
32082;SDS011;18597;48.328;7.932;2023-02-15T01:13:22;25.27;;;16.73;;
32082;SDS011;18597;48.328;7.932;2023-02-15T01:15:55;47.43;;;18.63;;
32082;SDS011;18597;48.328;7.932;2023-02-15T01:18:21;31.87;;;19.00;;
32082;SDS011;18597;48.328;7.932;2023-02-15T01:20:47;33.13;;;18.30;;
32082;SDS011;18597;48.328;7.932;2023-02-15T01:23:14;29.03;;;17.57;;
32082;SDS011;18597;48.328;7.932;2023-02-15T01:25:40;29.00;;;18.40;;
32082;SDS011;18597;48.328;7.932;2023-02-15T01:28:06;30.83;;;19.03;;
32082;SDS011;18597;48.328;7.932;2023-02-15T01:30:32;29.67;;;17.37;;
32082;SDS011;18597;48.328;7.932;2023-02-15T01:32:59;23.80;;;16.43;;
32082;SDS011;18597;48.328;7.932;2023-02-15T01:35:26;27.43;;;17.80;;
32082;SDS011;18597;48.328;7.932;2023-02-15T01:37:53;23.10;;;16.77;;
32082;SDS011;18597;48.328;7.932;2023-02-15T01:40:22;29.60;;;18.00;;
32082;SDS011;18597;48.328;7.932;2023-02-15T01:42:50;36.67;;;17.13;;
32082;SDS011;18597;48.328;7.932;2023-02-15T01:45:19;37.67;;;18.73;;
32082;SDS011;18597;48.328;7.932;2023-02-15T01:47:53;50.80;;;17.00;;
32082;SDS011;18597;48.328;7.932;2023-02-15T01:50:37;33.63;;;16.87;;
32082;SDS011;18597;48.328;7.932;2023-02-15T01:53:14;40.13;;;17.63;;
32082;SDS011;18597;48.328;7.932;2023-02-15T01:55:50;27.60;;;16.93;;
32082;SDS011;18597;48.328;7.932;2023-02-15T01:58:22;27.87;;;16.90;;
32082;SDS011;18597;48.328;7.932;2023-02-15T02:00:52;29.53;;;16.83;;
32082;SDS011;18597;48.328;7.932;2023-02-15T02:03:20;63.90;;;20.37;;
32082;SDS011;18597;48.328;7.932;2023-02-15T02:06:12;28.73;;;16.03;;
32082;SDS011;18597;48.328;7.932;2023-02-15T02:08:38;43.50;;;19.40;;
32082;SDS011;18597;48.328;7.932;2023-02-15T02:11:14;26.80;;;16.90;;
32082;SDS011;18597;48.328;7.932;2023-02-15T02:13:40;33.27;;;17.60;;
32082;SDS011;18597;48.328;7.932;2023-02-15T02:16:11;39.47;;;17.40;;
32082;SDS011;18597;48.328;7.932;2023-02-15T02:25:12;24.63;;;15.80;;
32082;SDS011;18597;48.328;7.932;2023-02-15T02:34:59;55.63;;;18.17;;
32082;SDS011;18597;48.328;7.932;2023-02-15T02:37:42;30.67;;;15.73;;
32082;SDS011;18597;48.328;7.932;2023-02-15T02:40:41;220.40;;;25.30;;
32082;SDS011;18597;48.328;7.932;2023-02-15T02:43:38;174.13;;;24.73;;
32082;SDS011;18597;48.328;7.932;2023-02-15T02:49:39;63.80;;;17.50;;
32082;SDS011;18597;48.328;7.932;2023-02-15T02:55:13;137.77;;;20.00;;
32082;SDS011;18597;48.328;7.932;2023-02-15T02:57:51;128.23;;;20.27;;
32082;SDS011;18597;48.328;7.932;2023-02-15T03:00:35;48.73;;;16.87;;
32082;SDS011;18597;48.328;7.932;2023-02-15T03:03:09;27.47;;;16.03;;
32082;SDS011;18597;48.328;7.932;2023-02-15T03:05:43;69.70;;;17.20;;
32082;SDS011;18597;48.328;7.932;2023-02-15T03:08:16;25.40;;;16.33;;
32082;SDS011;18597;48.328;7.932;2023-02-15T03:10:47;53.43;;;19.03;;
32082;SDS011;18597;48.328;7.932;2023-02-15T03:13:18;30.43;;;16.83;;
32082;SDS011;18597;48.328;7.932;2023-02-15T03:15:44;29.17;;;17.20;;
32082;SDS011;18597;48.328;7.932;2023-02-15T03:18:32;33.23;;;17.73;;
32082;SDS011;18597;48.328;7.932;2023-02-15T03:21:03;24.67;;;15.83;;
32082;SDS011;18597;48.328;7.932;2023-02-15T03:23:31;28.70;;;17.07;;
32082;SDS011;18597;48.328;7.932;2023-02-15T03:26:00;30.20;;;16.07;;
32082;SDS011;18597;48.328;7.932;2023-02-15T03:28:35;47.17;;;18.63;;
32082;SDS011;18597;48.328;7.932;2023-02-15T03:31:09;56.60;;;17.63;;
32082;SDS011;18597;48.328;7.932;2023-02-15T03:33:38;56.33;;;17.57;;
32082;SDS011;18597;48.328;7.932;2023-02-15T03:36:18;84.40;;;17.03;;
32082;SDS011;18597;48.328;7.932;2023-02-15T03:39:15;46.83;;;16.23;;
32082;SDS011;18597;48.328;7.932;2023-02-15T03:42:01;222.77;;;25.93;;
32082;SDS011;18597;48.328;7.932;2023-02-15T03:44:43;112.40;;;19.97;;
32082;SDS011;18597;48.328;7.932;2023-02-15T03:47:22;99.37;;;22.03;;
32082;SDS011;18597;48.328;7.932;2023-02-15T03:49:58;42.33;;;17.80;;
32082;SDS011;18597;48.328;7.932;2023-02-15T03:53:07;80.90;;;17.73;;
32082;SDS011;18597;48.328;7.932;2023-02-15T03:55:38;32.83;;;17.03;;
32082;SDS011;18597;48.328;7.932;2023-02-15T03:58:04;46.40;;;19.60;;
32082;SDS011;18597;48.328;7.932;2023-02-15T04:00:57;28.30;;;16.87;;
32082;SDS011;18597;48.328;7.932;2023-02-15T04:03:51;29.23;;;16.47;;
32082;SDS011;18597;48.328;7.932;2023-02-15T04:06:26;27.33;;;16.90;;
32082;SDS011;18597;48.328;7.932;2023-02-15T04:08:52;33.83;;;19.17;;
32082;SDS011;18597;48.328;7.932;2023-02-15T04:11:37;54.67;;;16.07;;
32082;SDS011;18597;48.328;7.932;2023-02-15T04:14:03;42.17;;;15.87;;
32082;SDS011;18597;48.328;7.932;2023-02-15T04:16:49;29.33;;;14.80;;
32082;SDS011;18597;48.328;7.932;2023-02-15T04:19:15;63.03;;;17.00;;
32082;SDS011;18597;48.328;7.932;2023-02-15T04:22:00;33.93;;;15.43;;
32082;SDS011;18597;48.328;7.932;2023-02-15T04:24:46;30.80;;;15.40;;
32082;SDS011;18597;48.328;7.932;2023-02-15T04:27:32;55.40;;;18.70;;
32082;SDS011;18597;48.328;7.932;2023-02-15T04:29:58;32.30;;;17.70;;
32082;SDS011;18597;48.328;7.932;2023-02-15T04:32:24;73.37;;;20.20;;
32082;SDS011;18597;48.328;7.932;2023-02-15T04:34:49;49.20;;;18.27;;
32082;SDS011;18597;48.328;7.932;2023-02-15T04:37:15;36.43;;;17.33;;
32082;SDS011;18597;48.328;7.932;2023-02-15T04:39:41;57.57;;;17.57;;
32082;SDS011;18597;48.328;7.932;2023-02-15T04:42:07;52.27;;;17.03;;
32082;SDS011;18597;48.328;7.932;2023-02-15T04:44:32;34.50;;;16.83;;
32082;SDS011;18597;48.328;7.932;2023-02-15T04:46:58;43.10;;;16.40;;
32082;SDS011;18597;48.328;7.932;2023-02-15T04:49:24;204.03;;;34.60;;
32082;SDS011;18597;48.328;7.932;2023-02-15T04:51:50;107.33;;;25.23;;
32082;SDS011;18597;48.328;7.932;2023-02-15T04:54:15;71.77;;;20.30;;
32082;SDS011;18597;48.328;7.932;2023-02-15T04:56:41;110.73;;;19.77;;
32082;SDS011;18597;48.328;7.932;2023-02-15T04:59:09;92.57;;;18.70;;
32082;SDS011;18597;48.328;7.932;2023-02-15T05:01:35;59.80;;;22.07;;
32082;SDS011;18597;48.328;7.932;2023-02-15T05:04:01;72.23;;;18.43;;
32082;SDS011;18597;48.328;7.932;2023-02-15T05:06:28;35.57;;;18.67;;
32082;SDS011;18597;48.328;7.932;2023-02-15T05:08:54;28.50;;;17.77;;
32082;SDS011;18597;48.328;7.932;2023-02-15T05:11:20;32.60;;;17.80;;
32082;SDS011;18597;48.328;7.932;2023-02-15T05:13:45;58.87;;;19.20;;
32082;SDS011;18597;48.328;7.932;2023-02-15T05:16:11;81.20;;;17.93;;
32082;SDS011;18597;48.328;7.932;2023-02-15T05:18:38;29.90;;;16.23;;
32082;SDS011;18597;48.328;7.932;2023-02-15T05:21:03;28.63;;;16.47;;
32082;SDS011;18597;48.328;7.932;2023-02-15T05:23:29;31.83;;;16.90;;
32082;SDS011;18597;48.328;7.932;2023-02-15T05:25:55;28.87;;;17.23;;
32082;SDS011;18597;48.328;7.932;2023-02-15T05:28:41;45.40;;;17.70;;
32082;SDS011;18597;48.328;7.932;2023-02-15T05:31:08;26.73;;;17.30;;
32082;SDS011;18597;48.328;7.932;2023-02-15T05:33:38;29.80;;;14.77;;
32082;SDS011;18597;48.328;7.932;2023-02-15T05:36:04;50.73;;;15.60;;
32082;SDS011;18597;48.328;7.932;2023-02-15T05:38:30;29.33;;;14.60;;
32082;SDS011;18597;48.328;7.932;2023-02-15T05:40:57;38.43;;;16.27;;
32082;SDS011;18597;48.328;7.932;2023-02-15T05:43:23;46.67;;;15.93;;
32082;SDS011;18597;48.328;7.932;2023-02-15T05:45:50;86.97;;;18.63;;
32082;SDS011;18597;48.328;7.932;2023-02-15T05:48:18;78.10;;;17.97;;
32082;SDS011;18597;48.328;7.932;2023-02-15T05:50:45;40.63;;;17.57;;
32082;SDS011;18597;48.328;7.932;2023-02-15T05:53:11;41.93;;;16.53;;
32082;SDS011;18597;48.328;7.932;2023-02-15T05:55:38;28.17;;;15.73;;
32082;SDS011;18597;48.328;7.932;2023-02-15T05:58:05;56.67;;;19.70;;
32082;SDS011;18597;48.328;7.932;2023-02-15T06:00:32;57.67;;;16.90;;
32082;SDS011;18597;48.328;7.932;2023-02-15T06:02:59;29.60;;;15.60;;
32082;SDS011;18597;48.328;7.932;2023-02-15T06:05:25;67.07;;;18.23;;
32082;SDS011;18597;48.328;7.932;2023-02-15T06:07:50;39.87;;;16.13;;
32082;SDS011;18597;48.328;7.932;2023-02-15T06:10:16;36.27;;;15.20;;
32082;SDS011;18597;48.328;7.932;2023-02-15T06:12:43;39.03;;;16.43;;
32082;SDS011;18597;48.328;7.932;2023-02-15T06:15:09;91.57;;;18.83;;
32082;SDS011;18597;48.328;7.932;2023-02-15T06:17:35;87.40;;;16.77;;
32082;SDS011;18597;48.328;7.932;2023-02-15T06:20:01;122.57;;;20.60;;
32082;SDS011;18597;48.328;7.932;2023-02-15T06:22:28;77.00;;;17.93;;
32082;SDS011;18597;48.328;7.932;2023-02-15T06:24:54;169.27;;;20.07;;
32082;SDS011;18597;48.328;7.932;2023-02-15T06:27:20;77.63;;;17.20;;
32082;SDS011;18597;48.328;7.932;2023-02-15T06:29:45;65.80;;;15.63;;
32082;SDS011;18597;48.328;7.932;2023-02-15T06:32:11;49.57;;;17.13;;
32082;SDS011;18597;48.328;7.932;2023-02-15T06:34:37;36.70;;;15.57;;
32082;SDS011;18597;48.328;7.932;2023-02-15T06:37:03;30.30;;;15.00;;
32082;SDS011;18597;48.328;7.932;2023-02-15T06:39:28;59.73;;;16.77;;
32082;SDS011;18597;48.328;7.932;2023-02-15T06:41:54;31.90;;;15.77;;
32082;SDS011;18597;48.328;7.932;2023-02-15T06:44:20;39.57;;;23.40;;
32082;SDS011;18597;48.328;7.932;2023-02-15T06:46:46;66.10;;;16.70;;
32082;SDS011;18597;48.328;7.932;2023-02-15T06:49:11;59.00;;;15.17;;
32082;SDS011;18597;48.328;7.932;2023-02-15T06:51:37;43.67;;;19.20;;
32082;SDS011;18597;48.328;7.932;2023-02-15T06:54:03;42.03;;;16.30;;
32082;SDS011;18597;48.328;7.932;2023-02-15T06:56:29;51.70;;;18.10;;
32082;SDS011;18597;48.328;7.932;2023-02-15T06:58:55;53.70;;;17.07;;
32082;SDS011;18597;48.328;7.932;2023-02-15T07:01:21;62.83;;;18.47;;
32082;SDS011;18597;48.328;7.932;2023-02-15T07:03:47;47.20;;;16.17;;
32082;SDS011;18597;48.328;7.932;2023-02-15T07:06:12;43.83;;;16.33;;
32082;SDS011;18597;48.328;7.932;2023-02-15T07:08:38;21.53;;;15.33;;
32082;SDS011;18597;48.328;7.932;2023-02-15T07:11:05;83.40;;;16.23;;
32082;SDS011;18597;48.328;7.932;2023-02-15T07:13:51;46.17;;;25.43;;
32082;SDS011;18597;48.328;7.932;2023-02-15T07:16:17;60.90;;;24.57;;
32082;SDS011;18597;48.328;7.932;2023-02-15T07:18:44;32.63;;;18.87;;
32082;SDS011;18597;48.328;7.932;2023-02-15T07:21:10;31.60;;;16.97;;
32082;SDS011;18597;48.328;7.932;2023-02-15T07:23:36;30.83;;;15.73;;
32082;SDS011;18597;48.328;7.932;2023-02-15T07:26:04;34.17;;;17.30;;
32082;SDS011;18597;48.328;7.932;2023-02-15T07:28:32;30.53;;;16.37;;
32082;SDS011;18597;48.328;7.932;2023-02-15T07:31:00;27.03;;;14.90;;
32082;SDS011;18597;48.328;7.932;2023-02-15T07:33:29;34.90;;;16.53;;
32082;SDS011;18597;48.328;7.932;2023-02-15T07:35:57;30.00;;;16.07;;
32082;SDS011;18597;48.328;7.932;2023-02-15T07:38:27;32.17;;;17.07;;
32082;SDS011;18597;48.328;7.932;2023-02-15T07:40:58;23.30;;;16.27;;
32082;SDS011;18597;48.328;7.932;2023-02-15T07:43:26;31.70;;;14.50;;
32082;SDS011;18597;48.328;7.932;2023-02-15T07:45:54;26.20;;;15.83;;
32082;SDS011;18597;48.328;7.932;2023-02-15T07:48:24;29.10;;;15.60;;
32082;SDS011;18597;48.328;7.932;2023-02-15T07:50:50;49.53;;;14.40;;
32082;SDS011;18597;48.328;7.932;2023-02-15T07:53:15;27.17;;;13.23;;
32082;SDS011;18597;48.328;7.932;2023-02-15T07:55:41;24.70;;;14.40;;
32082;SDS011;18597;48.328;7.932;2023-02-15T07:58:07;22.67;;;13.70;;
32082;SDS011;18597;48.328;7.932;2023-02-15T08:00:33;21.37;;;15.57;;
32082;SDS011;18597;48.328;7.932;2023-02-15T08:03:18;22.40;;;15.20;;
32082;SDS011;18597;48.328;7.932;2023-02-15T08:05:48;14.70;;;12.93;;
32082;SDS011;18597;48.328;7.932;2023-02-15T08:08:14;14.73;;;13.23;;
32082;SDS011;18597;48.328;7.932;2023-02-15T08:10:59;20.77;;;13.50;;
32082;SDS011;18597;48.328;7.932;2023-02-15T08:13:55;33.83;;;19.73;;
32082;SDS011;18597;48.328;7.932;2023-02-15T08:16:46;18.17;;;14.97;;
32082;SDS011;18597;48.328;7.932;2023-02-15T08:43:59;33.67;;;21.30;;
32082;SDS011;18597;48.328;7.932;2023-02-15T08:46:28;48.27;;;25.77;;
32082;SDS011;18597;48.328;7.932;2023-02-15T08:48:57;37.20;;;22.40;;
32082;SDS011;18597;48.328;7.932;2023-02-15T08:51:24;26.40;;;15.27;;
32082;SDS011;18597;48.328;7.932;2023-02-15T08:53:54;24.00;;;17.17;;
32082;SDS011;18597;48.328;7.932;2023-02-15T08:56:26;18.40;;;13.77;;
32082;SDS011;18597;48.328;7.932;2023-02-15T08:58:56;26.73;;;13.93;;
32082;SDS011;18597;48.328;7.932;2023-02-15T09:01:26;20.07;;;14.23;;
32082;SDS011;18597;48.328;7.932;2023-02-15T09:03:57;19.63;;;12.93;;
32082;SDS011;18597;48.328;7.932;2023-02-15T09:06:26;23.50;;;13.93;;
32082;SDS011;18597;48.328;7.932;2023-02-15T09:08:54;18.90;;;13.93;;
32082;SDS011;18597;48.328;7.932;2023-02-15T09:11:21;20.67;;;12.50;;
32082;SDS011;18597;48.328;7.932;2023-02-15T09:13:53;23.83;;;15.17;;
32082;SDS011;18597;48.328;7.932;2023-02-15T09:16:23;23.10;;;14.63;;
32082;SDS011;18597;48.328;7.932;2023-02-15T09:18:50;22.70;;;14.70;;
32082;SDS011;18597;48.328;7.932;2023-02-15T09:21:18;24.00;;;14.50;;
32082;SDS011;18597;48.328;7.932;2023-02-15T09:23:47;27.63;;;14.57;;
32082;SDS011;18597;48.328;7.932;2023-02-15T09:26:17;22.80;;;13.40;;
32082;SDS011;18597;48.328;7.932;2023-02-15T09:28:46;20.00;;;15.20;;
32082;SDS011;18597;48.328;7.932;2023-02-15T09:31:15;16.83;;;12.80;;
32082;SDS011;18597;48.328;7.932;2023-02-15T09:33:44;15.23;;;12.77;;
32082;SDS011;18597;48.328;7.932;2023-02-15T09:36:15;25.37;;;15.87;;
32082;SDS011;18597;48.328;7.932;2023-02-15T09:38:47;20.70;;;15.73;;
32082;SDS011;18597;48.328;7.932;2023-02-15T09:41:31;19.90;;;13.60;;
32082;SDS011;18597;48.328;7.932;2023-02-15T09:48:38;18.03;;;13.60;;
32082;SDS011;18597;48.328;7.932;2023-02-15T09:51:42;15.43;;;12.67;;
32082;SDS011;18597;48.328;7.932;2023-02-15T09:54:36;17.80;;;13.60;;
32082;SDS011;18597;48.328;7.932;2023-02-15T09:58:01;17.13;;;13.20;;
32082;SDS011;18597;48.328;7.932;2023-02-15T10:00:50;24.33;;;15.40;;
32082;SDS011;18597;48.328;7.932;2023-02-15T10:10:15;18.90;;;13.97;;
32082;SDS011;18597;48.328;7.932;2023-02-15T10:13:02;19.40;;;13.20;;
32082;SDS011;18597;48.328;7.932;2023-02-15T10:16:16;23.30;;;13.60;;
32082;SDS011;18597;48.328;7.932;2023-02-15T10:21:53;23.20;;;15.53;;
32082;SDS011;18597;48.328;7.932;2023-02-15T10:24:55;27.43;;;15.30;;
32082;SDS011;18597;48.328;7.932;2023-02-15T10:27:42;23.47;;;16.57;;
32082;SDS011;18597;48.328;7.932;2023-02-15T10:30:14;22.37;;;16.17;;
32082;SDS011;18597;48.328;7.932;2023-02-15T10:33:02;23.53;;;15.43;;
32082;SDS011;18597;48.328;7.932;2023-02-15T10:35:54;25.90;;;17.60;;
32082;SDS011;18597;48.328;7.932;2023-02-15T10:38:46;25.33;;;17.73;;
32082;SDS011;18597;48.328;7.932;2023-02-15T10:44:30;30.43;;;18.53;;
32082;SDS011;18597;48.328;7.932;2023-02-15T10:48:14;27.03;;;17.90;;
32082;SDS011;18597;48.328;7.932;2023-02-15T10:50:58;35.17;;;20.07;;
32082;SDS011;18597;48.328;7.932;2023-02-15T11:03:11;33.83;;;17.60;;
32082;SDS011;18597;48.328;7.932;2023-02-15T11:08:43;29.90;;;19.37;;
32082;SDS011;18597;48.328;7.932;2023-02-15T11:11:19;25.37;;;18.77;;
32082;SDS011;18597;48.328;7.932;2023-02-15T11:13:53;29.53;;;18.20;;
32082;SDS011;18597;48.328;7.932;2023-02-15T11:16:30;30.73;;;19.23;;
32082;SDS011;18597;48.328;7.932;2023-02-15T11:19:05;28.00;;;19.63;;
32082;SDS011;18597;48.328;7.932;2023-02-15T11:21:43;27.27;;;19.43;;
32082;SDS011;18597;48.328;7.932;2023-02-15T11:24:15;34.90;;;20.90;;
32082;SDS011;18597;48.328;7.932;2023-02-15T11:26:48;36.47;;;22.90;;
32082;SDS011;18597;48.328;7.932;2023-02-15T11:29:31;35.50;;;21.33;;
32082;SDS011;18597;48.328;7.932;2023-02-15T11:32:37;29.53;;;20.30;;
32082;SDS011;18597;48.328;7.932;2023-02-15T11:40:32;38.03;;;21.87;;
32082;SDS011;18597;48.328;7.932;2023-02-15T11:43:12;40.77;;;25.07;;
32082;SDS011;18597;48.328;7.932;2023-02-15T11:46:19;42.20;;;24.10;;
32082;SDS011;18597;48.328;7.932;2023-02-15T11:48:46;35.47;;;23.30;;
32082;SDS011;18597;48.328;7.932;2023-02-15T11:51:14;48.23;;;27.37;;
32082;SDS011;18597;48.328;7.932;2023-02-15T11:53:43;47.57;;;25.80;;
32082;SDS011;18597;48.328;7.932;2023-02-15T11:56:13;43.03;;;24.97;;
32082;SDS011;18597;48.328;7.932;2023-02-15T11:58:47;41.00;;;26.03;;
32082;SDS011;18597;48.328;7.932;2023-02-15T12:01:37;41.37;;;24.00;;
32082;SDS011;18597;48.328;7.932;2023-02-15T12:04:14;43.47;;;26.13;;
32082;SDS011;18597;48.328;7.932;2023-02-15T12:10:04;41.30;;;26.27;;
32082;SDS011;18597;48.328;7.932;2023-02-15T12:13:08;39.83;;;24.60;;
32082;SDS011;18597;48.328;7.932;2023-02-15T12:15:41;39.60;;;25.53;;
32082;SDS011;18597;48.328;7.932;2023-02-15T12:18:43;37.33;;;23.97;;
32082;SDS011;18597;48.328;7.932;2023-02-15T12:21:10;37.67;;;23.63;;
32082;SDS011;18597;48.328;7.932;2023-02-15T12:27:03;43.97;;;25.50;;
32082;SDS011;18597;48.328;7.932;2023-02-15T12:29:41;37.73;;;23.87;;
32082;SDS011;18597;48.328;7.932;2023-02-15T12:32:17;37.37;;;22.23;;
32082;SDS011;18597;48.328;7.932;2023-02-15T12:34:49;35.60;;;23.50;;
32082;SDS011;18597;48.328;7.932;2023-02-15T12:37:21;38.97;;;23.60;;
32082;SDS011;18597;48.328;7.932;2023-02-15T12:39:53;37.50;;;23.37;;
32082;SDS011;18597;48.328;7.932;2023-02-15T12:42:23;47.10;;;25.47;;
32082;SDS011;18597;48.328;7.932;2023-02-15T12:44:53;43.70;;;25.77;;
32082;SDS011;18597;48.328;7.932;2023-02-15T12:47:29;45.50;;;24.63;;
32082;SDS011;18597;48.328;7.932;2023-02-15T12:50:06;37.50;;;24.83;;
32082;SDS011;18597;48.328;7.932;2023-02-15T12:52:48;39.70;;;23.43;;
32082;SDS011;18597;48.328;7.932;2023-02-15T12:55:18;39.33;;;26.20;;
32082;SDS011;18597;48.328;7.932;2023-02-15T12:57:49;42.53;;;25.00;;
32082;SDS011;18597;48.328;7.932;2023-02-15T13:00:29;44.80;;;26.83;;
32082;SDS011;18597;48.328;7.932;2023-02-15T13:02:57;41.53;;;24.60;;
32082;SDS011;18597;48.328;7.932;2023-02-15T13:05:30;44.30;;;24.80;;
32082;SDS011;18597;48.328;7.932;2023-02-15T13:08:10;46.37;;;28.30;;
32082;SDS011;18597;48.328;7.932;2023-02-15T13:10:54;40.50;;;25.90;;
32082;SDS011;18597;48.328;7.932;2023-02-15T13:13:27;42.13;;;25.60;;
32082;SDS011;18597;48.328;7.932;2023-02-15T13:15:58;39.50;;;25.03;;
32082;SDS011;18597;48.328;7.932;2023-02-15T13:18:39;40.70;;;25.70;;
32082;SDS011;18597;48.328;7.932;2023-02-15T13:21:14;38.37;;;24.57;;
32082;SDS011;18597;48.328;7.932;2023-02-15T13:23:53;44.57;;;25.60;;
32082;SDS011;18597;48.328;7.932;2023-02-15T13:26:26;46.80;;;27.87;;
32082;SDS011;18597;48.328;7.932;2023-02-15T13:28:56;43.43;;;26.90;;
32082;SDS011;18597;48.328;7.932;2023-02-15T13:31:30;48.63;;;26.83;;
32082;SDS011;18597;48.328;7.932;2023-02-15T13:33:59;44.00;;;25.90;;
32082;SDS011;18597;48.328;7.932;2023-02-15T13:39:42;49.47;;;30.20;;
32082;SDS011;18597;48.328;7.932;2023-02-15T13:42:24;46.60;;;29.03;;
32082;SDS011;18597;48.328;7.932;2023-02-15T13:48:02;49.43;;;27.57;;
32082;SDS011;18597;48.328;7.932;2023-02-15T13:51:18;46.20;;;28.40;;
32082;SDS011;18597;48.328;7.932;2023-02-15T13:54:01;53.37;;;29.03;;
32082;SDS011;18597;48.328;7.932;2023-02-15T14:00:14;47.93;;;27.03;;
32082;SDS011;18597;48.328;7.932;2023-02-15T14:06:36;42.80;;;25.53;;
32082;SDS011;18597;48.328;7.932;2023-02-15T14:13:09;45.40;;;25.50;;
32082;SDS011;18597;48.328;7.932;2023-02-15T14:15:59;50.67;;;30.20;;
32082;SDS011;18597;48.328;7.932;2023-02-15T14:19:02;44.73;;;27.97;;
32082;SDS011;18597;48.328;7.932;2023-02-15T14:21:59;44.57;;;26.57;;
32082;SDS011;18597;48.328;7.932;2023-02-15T14:24:58;38.73;;;25.17;;
32082;SDS011;18597;48.328;7.932;2023-02-15T14:27:43;43.87;;;26.80;;
32082;SDS011;18597;48.328;7.932;2023-02-15T14:30:39;46.33;;;27.03;;
32082;SDS011;18597;48.328;7.932;2023-02-15T14:35:55;50.90;;;28.13;;
32082;SDS011;18597;48.328;7.932;2023-02-15T14:41:20;47.33;;;28.73;;
32082;SDS011;18597;48.328;7.932;2023-02-15T14:44:13;42.23;;;26.37;;
32082;SDS011;18597;48.328;7.932;2023-02-15T14:46:59;51.60;;;31.73;;
32082;SDS011;18597;48.328;7.932;2023-02-15T14:49:43;53.30;;;29.93;;
32082;SDS011;18597;48.328;7.932;2023-02-15T14:52:10;46.60;;;29.13;;
32082;SDS011;18597;48.328;7.932;2023-02-15T15:02:25;43.83;;;28.70;;
32082;SDS011;18597;48.328;7.932;2023-02-15T15:05:24;50.23;;;27.53;;
32082;SDS011;18597;48.328;7.932;2023-02-15T15:08:17;50.70;;;29.43;;
32082;SDS011;18597;48.328;7.932;2023-02-15T15:11:36;48.57;;;28.87;;
32082;SDS011;18597;48.328;7.932;2023-02-15T15:14:06;47.77;;;28.83;;
32082;SDS011;18597;48.328;7.932;2023-02-15T15:19:11;54.20;;;30.60;;
32082;SDS011;18597;48.328;7.932;2023-02-15T15:22:02;55.30;;;31.17;;
32082;SDS011;18597;48.328;7.932;2023-02-15T15:27:57;65.73;;;34.80;;
32082;SDS011;18597;48.328;7.932;2023-02-15T15:38:52;66.50;;;35.60;;
32082;SDS011;18597;48.328;7.932;2023-02-15T15:51:04;62.77;;;34.97;;
32082;SDS011;18597;48.328;7.932;2023-02-15T15:53:54;66.20;;;36.23;;
32082;SDS011;18597;48.328;7.932;2023-02-15T15:56:22;68.60;;;36.10;;
32082;SDS011;18597;48.328;7.932;2023-02-15T15:58:54;68.90;;;36.17;;
32082;SDS011;18597;48.328;7.932;2023-02-15T16:01:26;68.73;;;37.20;;
32082;SDS011;18597;48.328;7.932;2023-02-15T16:03:55;64.37;;;35.67;;
32082;SDS011;18597;48.328;7.932;2023-02-15T16:06:28;61.53;;;34.97;;
32082;SDS011;18597;48.328;7.932;2023-02-15T16:09:30;68.60;;;36.03;;
32082;SDS011;18597;48.328;7.932;2023-02-15T16:11:52;64.53;;;34.10;;
32082;SDS011;18597;48.328;7.932;2023-02-15T16:14:28;69.17;;;34.10;;
32082;SDS011;18597;48.328;7.932;2023-02-15T16:17:03;55.50;;;34.00;;
32082;SDS011;18597;48.328;7.932;2023-02-15T16:19:33;67.97;;;37.30;;
32082;SDS011;18597;48.328;7.932;2023-02-15T16:22:04;62.90;;;34.57;;
32082;SDS011;18597;48.328;7.932;2023-02-15T16:24:54;53.20;;;32.10;;
32082;SDS011;18597;48.328;7.932;2023-02-15T16:28:05;58.17;;;31.63;;
32082;SDS011;18597;48.328;7.932;2023-02-15T16:30:37;59.20;;;32.60;;
32082;SDS011;18597;48.328;7.932;2023-02-15T16:33:07;55.80;;;31.90;;
32082;SDS011;18597;48.328;7.932;2023-02-15T16:35:40;61.23;;;35.13;;
32082;SDS011;18597;48.328;7.932;2023-02-15T16:38:40;62.33;;;34.20;;
32082;SDS011;18597;48.328;7.932;2023-02-15T16:41:15;60.47;;;32.80;;
32082;SDS011;18597;48.328;7.932;2023-02-15T16:43:45;61.37;;;33.00;;
32082;SDS011;18597;48.328;7.932;2023-02-15T16:46:15;68.57;;;35.10;;
32082;SDS011;18597;48.328;7.932;2023-02-15T16:48:51;65.60;;;33.20;;
32082;SDS011;18597;48.328;7.932;2023-02-15T16:51:22;66.17;;;34.90;;
32082;SDS011;18597;48.328;7.932;2023-02-15T16:53:52;61.05;;;35.17;;
32082;SDS011;18597;48.328;7.932;2023-02-15T16:56:22;54.80;;;31.93;;
32082;SDS011;18597;48.328;7.932;2023-02-15T16:58:51;68.03;;;35.67;;
32082;SDS011;18597;48.328;7.932;2023-02-15T17:01:20;58.73;;;33.73;;
32082;SDS011;18597;48.328;7.932;2023-02-15T17:03:52;66.70;;;33.83;;
32082;SDS011;18597;48.328;7.932;2023-02-15T17:06:58;72.97;;;35.60;;
32082;SDS011;18597;48.328;7.932;2023-02-15T17:09:49;84.13;;;38.23;;
32082;SDS011;18597;48.328;7.932;2023-02-15T17:15:35;87.30;;;40.60;;
32082;SDS011;18597;48.328;7.932;2023-02-15T17:18:05;76.97;;;37.77;;
32082;SDS011;18597;48.328;7.932;2023-02-15T17:20:53;73.03;;;38.63;;
32082;SDS011;18597;48.328;7.932;2023-02-15T17:23:26;64.77;;;37.13;;
32082;SDS011;18597;48.328;7.932;2023-02-15T17:25:57;121.30;;;56.53;;
32082;SDS011;18597;48.328;7.932;2023-02-15T17:28:28;130.53;;;76.23;;